Time;durP1;ratioP1;P1;durP2;ratioP2;P2;SDS_P1;SDS_P2;PMS_P1;PMS_P2;Temp;Humidity;BMP_temperature;BMP_pressure;BME280_temperature;BME280_humidity;BME280_pressure;Samples;Min_cycle;Max_cycle;Signal;HPM_P1;HPM_P2
2023/01/31 00:01:29;;;;;;;24.73;11.82;;;4.30;86.80;;;;;;5032263;28;20125;-75
2023/01/31 00:04:10;;;;;;;28.33;12.38;;;4.40;87.00;;;;;;5037805;28;20377;-74
2023/01/31 00:06:38;;;;;;;30.67;12.02;;;4.30;86.90;;;;;;5029141;28;20053;-74
2023/01/31 00:09:06;;;;;;;30.77;12.15;;;4.30;87.10;;;;;;5038030;28;20529;-74
2023/01/31 00:11:33;;;;;;;24.80;12.50;;;4.20;87.20;;;;;;5029389;28;20045;-74
2023/01/31 00:14:01;;;;;;;28.45;12.63;;;4.20;87.10;;;;;;5032589;28;20030;-75
2023/01/31 00:16:26;;;;;;;29.55;12.90;;;4.20;87.30;;;;;;5035260;28;20549;-75
2023/01/31 00:18:52;;;;;;;26.20;12.68;;;4.10;87.40;;;;;;5038022;28;20017;-75
2023/01/31 00:21:28;;;;;;;29.35;13.13;;;4.10;87.30;;;;;;5036441;28;20041;-76
2023/01/31 00:23:54;;;;;;;32.92;13.13;;;4.10;87.40;;;;;;5039175;28;20029;-75
2023/01/31 00:26:31;;;;;;;27.35;12.27;;;4.10;87.30;;;;;;5031320;28;20358;-75
2023/01/31 00:28:59;;;;;;;27.17;12.85;;;4.00;87.40;;;;;;5032000;28;20113;-75
2023/01/31 00:31:26;;;;;;;29.90;14.13;;;4.00;87.40;;;;;;5032967;28;20060;-75
2023/01/31 00:33:53;;;;;;;32.17;13.73;;;3.90;87.50;;;;;;5034416;28;20409;-74
2023/01/31 00:36:22;;;;;;;26.45;12.30;;;3.90;87.60;;;;;;5029415;28;20119;-75
2023/01/31 00:38:49;;;;;;;31.50;13.15;;;3.90;87.80;;;;;;5030593;28;20591;-75
2023/01/31 00:41:15;;;;;;;33.67;12.75;;;3.90;87.90;;;;;;5034618;28;20122;-75
2023/01/31 00:43:41;;;;;;;25.95;13.10;;;3.90;88.00;;;;;;5034117;28;20480;-75
2023/01/31 00:46:06;;;;;;;30.90;13.90;;;3.90;88.00;;;;;;5031450;28;20025;-75
2023/01/31 00:48:32;;;;;;;27.90;12.82;;;3.90;88.10;;;;;;5032019;28;20210;-75
2023/01/31 00:50:58;;;;;;;29.33;12.38;;;3.90;88.20;;;;;;5026578;28;20034;-75
2023/01/31 00:53:24;;;;;;;29.00;12.55;;;3.90;88.10;;;;;;5033822;28;20075;-74
2023/01/31 00:55:54;;;;;;;28.65;11.98;;;3.80;88.10;;;;;;5032112;28;20393;-75
2023/01/31 00:58:20;;;;;;;24.77;12.82;;;3.90;88.20;;;;;;5038132;28;20022;-75
2023/01/31 01:00:47;;;;;;;26.35;12.00;;;3.80;88.20;;;;;;5035469;28;20032;-75
2023/01/31 01:03:13;;;;;;;30.58;13.88;;;3.80;88.20;;;;;;5034569;28;20316;-75
2023/01/31 01:05:39;;;;;;;27.35;12.10;;;3.80;88.20;;;;;;5034696;28;20029;-75
2023/01/31 01:08:05;;;;;;;24.67;12.82;;;3.70;88.30;;;;;;5031579;28;20452;-75
2023/01/31 01:10:31;;;;;;;24.30;12.48;;;3.70;88.30;;;;;;5034782;28;20194;-75
2023/01/31 01:12:57;;;;;;;30.38;13.45;;;3.70;88.20;;;;;;5030359;28;20468;-76
2023/01/31 01:15:22;;;;;;;28.23;12.88;;;3.70;88.30;;;;;;5028717;28;20032;-75
2023/01/31 01:17:49;;;;;;;26.58;12.55;;;3.70;88.40;;;;;;5032463;28;20029;-75
2023/01/31 01:20:15;;;;;;;30.30;12.77;;;3.70;88.40;;;;;;5030006;28;20025;-75
2023/01/31 01:22:41;;;;;;;25.85;12.15;;;3.60;88.30;;;;;;5032348;28;20037;-75
2023/01/31 01:25:08;;;;;;;28.88;11.68;;;3.60;88.30;;;;;;5031417;28;20017;-75
2023/01/31 01:27:34;;;;;;;29.92;13.23;;;3.60;88.40;;;;;;5032220;28;20059;-75
2023/01/31 01:30:00;;;;;;;22.83;12.95;;;3.60;88.30;;;;;;5030766;28;20033;-75
2023/01/31 01:32:27;;;;;;;25.33;12.57;;;3.60;88.40;;;;;;5028982;28;20037;-75
2023/01/31 01:34:52;;;;;;;29.40;13.73;;;3.50;88.30;;;;;;5026342;28;20376;-75
2023/01/31 01:37:21;;;;;;;26.05;13.38;;;3.60;88.30;;;;;;5033975;28;20347;-75
2023/01/31 01:39:48;;;;;;;27.08;13.32;;;3.50;88.20;;;;;;5028758;28;20420;-75
2023/01/31 01:42:20;;;;;;;31.05;14.55;;;3.40;88.20;;;;;;5038429;28;20504;-74
2023/01/31 01:44:56;;;;;;;27.50;13.13;;;3.40;88.30;;;;;;5029544;28;20071;-73
2023/01/31 01:47:43;;;;;;;26.90;13.02;;;3.40;88.40;;;;;;5034141;28;20477;-74
2023/01/31 01:50:12;;;;;;;24.98;12.40;;;3.40;88.50;;;;;;5035760;28;20025;-74
2023/01/31 01:52:46;;;;;;;27.88;13.50;;;3.40;88.70;;;;;;5034174;28;20133;-74
2023/01/31 01:55:22;;;;;;;33.97;13.45;;;3.30;88.70;;;;;;5030650;28;20048;-74
2023/01/31 01:57:53;;;;;;;29.95;13.63;;;3.30;88.70;;;;;;5030807;28;20493;-73
2023/01/31 02:00:21;;;;;;;27.60;14.07;;;3.30;88.70;;;;;;5034947;28;20365;-74
2023/01/31 02:02:51;;;;;;;28.20;12.68;;;3.30;88.70;;;;;;5032235;28;20076;-74
2023/01/31 02:05:21;;;;;;;23.42;12.38;;;3.30;88.80;;;;;;5036585;28;20171;-74
2023/01/31 02:07:47;;;;;;;30.75;14.18;;;3.30;88.90;;;;;;5030067;28;20017;-74
2023/01/31 02:10:38;;;;;;;32.20;14.07;;;3.20;88.80;;;;;;5041488;28;20035;-74
2023/01/31 02:13:04;;;;;;;26.15;13.65;;;3.30;88.90;;;;;;5040794;28;20044;-74
2023/01/31 02:15:32;;;;;;;30.25;14.50;;;3.20;88.90;;;;;;5035914;28;20435;-74
2023/01/31 02:17:57;;;;;;;26.17;14.75;;;3.20;89.00;;;;;;5037069;28;20025;-75
2023/01/31 02:20:26;;;;;;;30.77;14.02;;;3.20;89.00;;;;;;5038196;28;20033;-75
2023/01/31 02:23:22;;;;;;;33.22;14.98;;;3.30;89.10;;;;;;5039178;28;20032;-75
2023/01/31 02:25:54;;;;;;;33.08;13.57;;;3.30;89.20;;;;;;5039902;28;20021;-74
2023/01/31 02:29:09;;;;;;;26.08;12.75;;;3.30;89.20;;;;;;5038156;28;20040;-74
2023/01/31 02:31:35;;;;;;;27.10;13.15;;;3.30;89.10;;;;;;5032557;28;20349;-74
2023/01/31 02:34:13;;;;;;;29.67;13.45;;;3.30;89.20;;;;;;5037516;28;20423;-74
2023/01/31 02:36:58;;;;;;;28.38;13.50;;;3.30;89.40;;;;;;5037275;28;20025;-75
2023/01/31 02:39:34;;;;;;;23.60;12.43;;;3.40;89.50;;;;;;5032602;28;20041;-75
2023/01/31 02:42:28;;;;;;;32.85;13.98;;;3.40;89.40;;;;;;5030308;28;20450;-74
2023/01/31 02:45:06;;;;;;;34.30;13.95;;;3.30;89.50;;;;;;5033764;28;20017;-74
2023/01/31 02:47:46;;;;;;;32.35;14.27;;;3.40;89.40;;;;;;5029974;28;20055;-75
2023/01/31 02:50:28;;;;;;;27.70;12.77;;;3.40;89.40;;;;;;5033041;28;20080;-75
2023/01/31 02:53:12;;;;;;;32.38;12.85;;;3.30;89.40;;;;;;5033083;28;20061;-75
2023/01/31 02:56:22;;;;;;;31.67;12.60;;;3.30;89.50;;;;;;5033052;28;20500;-74
2023/01/31 02:58:44;;;;;;;31.80;13.48;;;3.30;89.40;;;;;;5034098;28;20025;-75
2023/01/31 03:01:16;;;;;;;30.83;13.35;;;3.30;89.50;;;;;;5032520;28;20086;-75
2023/01/31 03:03:42;;;;;;;28.02;12.50;;;3.30;89.50;;;;;;5038921;28;20037;-75
2023/01/31 03:06:24;;;;;;;27.77;11.23;;;3.30;89.60;;;;;;5031308;28;20041;-73
2023/01/31 03:09:20;;;;;;;24.83;11.30;;;3.30;89.60;;;;;;5034975;28;20075;-74
2023/01/31 03:12:13;;;;;;;26.27;11.82;;;3.40;89.60;;;;;;5032793;28;20061;-74
2023/01/31 03:15:17;;;;;;;24.45;12.00;;;3.30;89.60;;;;;;5037710;28;20021;-75
2023/01/31 03:17:51;;;;;;;26.00;11.57;;;3.30;89.70;;;;;;5032402;28;20415;-75
2023/01/31 03:20:20;;;;;;;24.35;10.93;;;3.30;89.60;;;;;;5038629;28;20032;-76
2023/01/31 03:22:50;;;;;;;24.55;11.82;;;3.20;89.50;;;;;;5036104;28;20423;-74
2023/01/31 03:25:20;;;;;;;28.40;11.32;;;3.20;89.60;;;;;;5039013;28;20028;-76
2023/01/31 03:27:55;;;;;;;30.67;11.18;;;3.20;89.60;;;;;;5033565;28;20025;-75
2023/01/31 03:30:36;;;;;;;25.10;10.73;;;3.30;89.90;;;;;;5042113;28;20049;-75
2023/01/31 03:33:25;;;;;;;24.63;11.52;;;3.30;89.90;;;;;;5038434;28;20057;-75
2023/01/31 03:36:04;;;;;;;30.83;11.15;;;3.30;89.90;;;;;;5035724;28;20524;-74
2023/01/31 03:38:35;;;;;;;26.90;10.95;;;3.20;89.80;;;;;;5034452;28;20025;-75
2023/01/31 03:41:10;;;;;;;29.65;10.63;;;3.20;89.80;;;;;;5032780;28;20129;-74
2023/01/31 03:43:41;;;;;;;27.40;10.75;;;3.20;90.00;;;;;;5035011;28;20467;-75
2023/01/31 03:46:33;;;;;;;26.55;10.75;;;3.30;89.90;;;;;;5038673;28;20041;-75
2023/01/31 03:49:02;;;;;;;28.75;9.73;;;3.30;89.80;;;;;;5035532;28;20064;-75
2023/01/31 03:51:31;;;;;;;24.77;9.82;;;3.20;89.90;;;;;;5036001;28;20049;-74
2023/01/31 03:54:08;;;;;;;25.63;11.18;;;3.20;90.00;;;;;;5034288;28;20051;-76
2023/01/31 03:56:58;;;;;;;25.48;9.68;;;3.20;90.00;;;;;;5030923;28;20029;-75
2023/01/31 03:59:28;;;;;;;21.95;9.63;;;3.20;90.00;;;;;;5032522;28;20013;-75
2023/01/31 04:01:58;;;;;;;24.40;9.88;;;3.20;90.00;;;;;;5033277;28;20420;-75
2023/01/31 04:05:16;;;;;;;22.10;10.10;;;3.10;90.10;;;;;;5030005;28;20039;-76
2023/01/31 04:07:41;;;;;;;26.20;10.85;;;3.20;90.30;;;;;;5022182;28;20075;-75
2023/01/31 04:10:18;;;;;;;25.75;10.60;;;3.20;90.30;;;;;;5035637;28;20041;-75
2023/01/31 04:12:44;;;;;;;24.40;10.63;;;3.10;90.30;;;;;;5031537;28;20037;-75
2023/01/31 04:15:10;;;;;;;34.70;11.85;;;3.10;90.30;;;;;;5038121;28;20509;-74
2023/01/31 04:17:36;;;;;;;28.98;10.75;;;3.20;90.40;;;;;;5037392;28;20033;-75
2023/01/31 04:20:02;;;;;;;25.65;9.93;;;3.20;90.40;;;;;;5038554;28;20358;-75
2023/01/31 04:22:28;;;;;;;25.88;10.40;;;3.30;90.70;;;;;;5034443;28;20032;-75
2023/01/31 04:24:53;;;;;;;28.58;10.55;;;3.30;90.60;;;;;;5039364;28;20021;-76
2023/01/31 04:27:19;;;;;;;30.77;9.75;;;3.30;90.70;;;;;;5037626;28;20033;-75
2023/01/31 04:29:44;;;;;;;25.27;9.50;;;3.40;90.70;;;;;;5036477;28;20067;-75
2023/01/31 04:32:10;;;;;;;30.33;10.20;;;3.30;90.80;;;;;;5038369;28;20132;-74
2023/01/31 04:34:36;;;;;;;24.42;8.45;;;3.40;90.70;;;;;;5037671;28;20567;-75
2023/01/31 04:37:01;;;;;;;28.55;9.00;;;3.40;90.80;;;;;;5038205;28;20037;-75
2023/01/31 04:39:27;;;;;;;29.98;9.80;;;3.40;90.70;;;;;;5034754;28;20022;-75
2023/01/31 04:41:53;;;;;;;24.60;8.68;;;3.40;90.80;;;;;;5033512;28;20087;-75
2023/01/31 04:44:18;;;;;;;22.35;9.40;;;3.50;90.90;;;;;;5033614;28;20040;-76
2023/01/31 04:46:45;;;;;;;27.95;9.18;;;3.50;90.90;;;;;;5031654;28;20476;-75
2023/01/31 04:49:11;;;;;;;25.48;8.43;;;3.60;90.90;;;;;;5028165;28;20051;-75
2023/01/31 04:51:37;;;;;;;27.58;9.57;;;3.60;90.90;;;;;;5034795;28;20052;-75
2023/01/31 04:54:03;;;;;;;24.10;10.02;;;3.60;91.00;;;;;;5028671;28;20025;-75
2023/01/31 04:56:29;;;;;;;28.83;9.95;;;3.70;90.90;;;;;;5034841;28;20052;-75
2023/01/31 04:58:54;;;;;;;25.10;8.90;;;3.70;90.90;;;;;;5039095;28;20029;-75
2023/01/31 05:01:20;;;;;;;30.38;9.68;;;3.80;90.90;;;;;;5035418;28;20078;-75
2023/01/31 05:03:46;;;;;;;22.45;9.00;;;3.90;90.80;;;;;;5033524;28;20012;-76
2023/01/31 05:06:11;;;;;;;24.05;8.57;;;3.90;90.70;;;;;;5034665;28;20033;-76
2023/01/31 05:08:37;;;;;;;22.42;8.60;;;3.90;90.80;;;;;;5036040;28;20033;-76
2023/01/31 05:11:04;;;;;;;25.08;9.75;;;4.00;90.80;;;;;;5032664;28;20038;-76
2023/01/31 05:13:31;;;;;;;26.00;10.05;;;4.00;90.70;;;;;;5032470;28;20026;-76
2023/01/31 05:15:57;;;;;;;22.80;8.18;;;4.10;90.80;;;;;;5030440;28;20048;-75
2023/01/31 05:18:23;;;;;;;20.80;8.57;;;4.10;90.70;;;;;;5033769;28;20473;-75
2023/01/31 05:20:49;;;;;;;26.00;9.38;;;4.10;90.50;;;;;;5033240;28;20083;-76
2023/01/31 05:23:16;;;;;;;26.40;9.57;;;4.20;90.50;;;;;;5031887;28;20021;-75
2023/01/31 05:25:42;;;;;;;32.15;9.95;;;4.20;90.50;;;;;;5025778;28;20037;-75
2023/01/31 05:28:08;;;;;;;27.77;9.60;;;4.20;90.50;;;;;;5034745;28;20025;-76
2023/01/31 05:30:35;;;;;;;23.63;8.88;;;4.20;90.50;;;;;;5028099;28;20458;-75
2023/01/31 05:33:00;;;;;;;32.70;10.30;;;4.20;90.60;;;;;;5029847;28;20152;-76
2023/01/31 05:35:26;;;;;;;25.55;9.88;;;4.30;90.60;;;;;;5031473;28;20116;-76
2023/01/31 05:37:55;;;;;;;25.90;9.73;;;4.30;90.50;;;;;;5037114;28;20029;-76
2023/01/31 05:40:21;;;;;;;24.30;9.05;;;4.30;90.60;;;;;;5037991;28;20044;-75
2023/01/31 05:42:59;;;;;;;31.83;9.55;;;4.40;90.50;;;;;;5038376;28;20080;-75
2023/01/31 05:45:26;;;;;;;30.75;9.70;;;4.40;90.50;;;;;;5030804;28;20069;-76
2023/01/31 05:47:51;;;;;;;25.38;9.32;;;4.50;90.60;;;;;;5033870;28;20100;-75
2023/01/31 05:50:18;;;;;;;25.20;9.75;;;4.50;90.50;;;;;;5036775;28;20400;-76
2023/01/31 05:52:53;;;;;;;24.92;9.20;;;4.50;90.50;;;;;;5034721;28;20041;-74
2023/01/31 05:55:19;;;;;;;22.35;9.40;;;4.50;90.50;;;;;;5035826;28;20175;-75
2023/01/31 05:57:45;;;;;;;25.67;9.77;;;4.60;90.40;;;;;;5040681;28;20025;-75
2023/01/31 06:00:13;;;;;;;29.20;10.80;;;4.50;90.40;;;;;;5039764;28;20274;-75
2023/01/31 06:02:40;;;;;;;24.48;9.10;;;4.60;90.50;;;;;;5037355;28;20095;-74
2023/01/31 06:05:06;;;;;;;27.83;10.88;;;4.60;90.50;;;;;;5037018;28;20060;-74
2023/01/31 06:07:32;;;;;;;23.02;9.38;;;4.60;90.50;;;;;;5035928;28;20060;-75
2023/01/31 06:09:58;;;;;;;24.10;9.60;;;4.60;90.50;;;;;;5037439;28;20458;-75
2023/01/31 06:12:24;;;;;;;29.88;9.27;;;4.60;90.40;;;;;;5035715;28;20056;-75
2023/01/31 06:14:49;;;;;;;27.00;9.60;;;4.60;90.40;;;;;;5040965;28;20549;-75
2023/01/31 06:17:15;;;;;;;25.80;9.15;;;4.60;90.40;;;;;;5039649;28;20488;-76
2023/01/31 06:19:41;;;;;;;31.35;9.70;;;4.60;90.50;;;;;;5035043;28;20111;-75
2023/01/31 06:22:06;;;;;;;30.48;10.55;;;4.60;90.50;;;;;;5040827;28;20444;-76
2023/01/31 06:24:32;;;;;;;26.08;9.73;;;4.70;90.50;;;;;;5035132;28;20029;-74
2023/01/31 06:26:58;;;;;;;28.27;10.05;;;4.70;90.50;;;;;;5040117;28;20056;-75
2023/01/31 06:29:23;;;;;;;28.67;9.18;;;4.70;90.50;;;;;;5035897;28;20029;-75
2023/01/31 06:31:49;;;;;;;20.98;9.73;;;4.70;90.50;;;;;;5034731;28;20034;-75
2023/01/31 06:34:15;;;;;;;30.23;11.13;;;4.80;90.50;;;;;;5043526;28;20060;-75
2023/01/31 06:36:41;;;;;;;24.60;9.68;;;4.80;90.50;;;;;;5036158;28;20097;-75
2023/01/31 06:39:07;;;;;;;27.30;9.52;;;4.80;90.50;;;;;;5034982;28;20567;-76
2023/01/31 06:41:32;;;;;;;23.63;9.07;;;4.80;90.60;;;;;;5035556;28;20051;-74
2023/01/31 06:43:58;;;;;;;22.10;9.02;;;4.80;90.50;;;;;;5042615;28;20361;-74
2023/01/31 06:46:23;;;;;;;24.88;9.57;;;4.90;90.60;;;;;;5034276;28;20104;-76
2023/01/31 06:48:49;;;;;;;24.80;8.63;;;4.80;90.60;;;;;;5042113;28;20047;-76
2023/01/31 06:51:15;;;;;;;27.02;9.20;;;4.90;90.60;;;;;;5037651;28;20136;-76
2023/01/31 06:53:41;;;;;;;21.73;9.35;;;4.90;90.60;;;;;;5042072;28;20029;-75
2023/01/31 06:56:07;;;;;;;26.17;10.35;;;4.90;90.60;;;;;;5039894;28;20029;-76
2023/01/31 06:58:33;;;;;;;28.95;10.15;;;4.90;90.70;;;;;;5039470;28;20033;-76
2023/01/31 07:01:10;;;;;;;23.88;8.27;;;4.90;90.50;;;;;;5037847;28;20362;-76
2023/01/31 07:03:36;;;;;;;29.55;9.73;;;4.90;90.50;;;;;;5036446;28;20430;-75
2023/01/31 07:06:01;;;;;;;25.15;9.60;;;4.90;90.40;;;;;;5033494;28;20064;-75
2023/01/31 07:08:27;;;;;;;29.15;9.25;;;5.00;90.50;;;;;;5041173;28;20009;-76
2023/01/31 07:10:53;;;;;;;25.42;9.70;;;5.00;90.50;;;;;;5032395;28;20349;-75
2023/01/31 07:13:18;;;;;;;25.60;9.02;;;5.00;90.70;;;;;;5038535;28;20050;-76
2023/01/31 07:15:45;;;;;;;29.90;10.05;;;5.00;90.80;;;;;;5038718;28;20097;-75
2023/01/31 07:18:13;;;;;;;23.67;9.10;;;5.10;90.90;;;;;;5037693;28;20021;-75
2023/01/31 07:20:40;;;;;;;25.45;9.60;;;5.10;91.00;;;;;;5038455;28;20025;-76
2023/01/31 07:23:06;;;;;;;27.08;8.88;;;5.10;90.90;;;;;;5034128;28;20021;-75
2023/01/31 07:25:32;;;;;;;22.52;9.82;;;5.20;90.80;;;;;;5032216;28;20032;-75
2023/01/31 07:27:59;;;;;;;26.25;9.07;;;5.20;90.70;;;;;;5028312;28;20019;-75
2023/01/31 07:30:25;;;;;;;17.10;8.75;;;5.20;90.60;;;;;;5037401;28;20017;-76
2023/01/31 07:32:51;;;;;;;26.33;9.93;;;5.20;90.70;;;;;;5035732;28;20310;-75
2023/01/31 07:35:17;;;;;;;25.08;8.88;;;5.20;90.80;;;;;;5036870;28;20068;-75
2023/01/31 07:37:43;;;;;;;30.65;10.20;;;5.20;90.70;;;;;;5032930;28;20075;-76
2023/01/31 07:40:10;;;;;;;20.73;9.27;;;5.20;90.80;;;;;;5033191;28;20461;-76
2023/01/31 07:42:36;;;;;;;28.88;8.82;;;5.30;90.80;;;;;;5041462;28;20432;-76
2023/01/31 07:45:02;;;;;;;24.35;8.63;;;5.40;90.70;;;;;;5034521;28;20029;-75
2023/01/31 07:47:27;;;;;;;24.05;8.00;;;5.50;90.70;;;;;;5038351;28;20080;-76
2023/01/31 07:49:53;;;;;;;21.58;8.27;;;5.50;90.70;;;;;;5043524;28;20029;-74
2023/01/31 07:52:19;;;;;;;22.88;8.75;;;5.50;90.60;;;;;;5041072;28;20036;-76
2023/01/31 07:54:44;;;;;;;23.67;7.82;;;5.60;90.50;;;;;;5032940;28;20056;-76
2023/01/31 07:57:12;;;;;;;22.38;8.25;;;5.60;90.60;;;;;;5038409;28;20362;-76
2023/01/31 07:59:37;;;;;;;26.23;9.13;;;5.60;90.50;;;;;;5042100;28;20664;-77
2023/01/31 08:04:48;;;;;;;26.77;8.35;;;5.70;90.50;;;;;;5036671;28;20031;-76
2023/01/31 08:07:13;;;;;;;29.92;9.32;;;5.80;90.40;;;;;;5028966;28;20393;-76
2023/01/31 08:09:39;;;;;;;24.27;9.25;;;5.80;90.30;;;;;;5040304;28;20548;-77
2023/01/31 08:12:06;;;;;;;22.52;8.75;;;5.90;90.10;;;;;;5035742;28;20132;-76
2023/01/31 08:14:32;;;;;;;26.98;8.88;;;6.00;90.00;;;;;;5039354;28;20029;-76
2023/01/31 08:16:58;;;;;;;23.15;8.35;;;6.00;89.90;;;;;;5041693;28;20043;-76
2023/01/31 08:19:25;;;;;;;21.50;9.10;;;6.10;89.70;;;;;;5037183;28;20025;-76
2023/01/31 08:21:51;;;;;;;23.67;8.65;;;6.10;89.50;;;;;;5041051;28;20472;-76
2023/01/31 08:24:16;;;;;;;29.02;8.80;;;6.10;89.50;;;;;;5042322;28;20146;-77
2023/01/31 08:26:42;;;;;;;25.25;8.85;;;6.20;89.40;;;;;;5032947;28;20204;-75
2023/01/31 08:29:08;;;;;;;25.00;8.18;;;6.20;89.30;;;;;;5039507;28;20075;-78
2023/01/31 08:31:34;;;;;;;28.77;9.00;;;6.30;89.10;;;;;;5040417;28;20083;-77
2023/01/31 08:34:00;;;;;;;22.17;9.10;;;6.30;88.90;;;;;;5042579;28;20433;-77
2023/01/31 08:36:30;;;;;;;26.05;8.25;;;6.40;89.00;;;;;;5038446;28;20029;-77
2023/01/31 08:38:56;;;;;;;22.63;8.73;;;6.40;88.70;;;;;;5039994;28;20349;-78
2023/01/31 08:41:25;;;;;;;26.58;9.88;;;6.40;88.60;;;;;;5038927;28;20127;-78
2023/01/31 08:43:51;;;;;;;24.50;8.80;;;6.50;88.70;;;;;;5040795;28;20029;-77
2023/01/31 08:46:17;;;;;;;28.42;10.65;;;6.50;88.60;;;;;;5033669;28;20025;-77
2023/01/31 08:48:43;;;;;;;21.08;8.38;;;6.60;88.70;;;;;;5036850;28;20498;-75
2023/01/31 08:51:11;;;;;;;27.15;8.77;;;6.60;88.50;;;;;;5047150;28;20045;-77
2023/01/31 08:53:39;;;;;;;25.40;8.50;;;6.70;88.00;;;;;;5042354;28;20056;-76
2023/01/31 08:56:06;;;;;;;23.95;9.07;;;6.70;88.00;;;;;;5040672;28;20037;-75
2023/01/31 08:58:35;;;;;;;23.27;7.88;;;6.70;87.80;;;;;;5040425;28;20040;-75
2023/01/31 09:01:06;;;;;;;22.50;7.40;;;6.70;87.70;;;;;;5045183;28;20123;-75
2023/01/31 09:03:31;;;;;;;23.42;8.40;;;6.80;87.60;;;;;;5041134;28;20117;-77
2023/01/31 09:05:59;;;;;;;29.73;9.07;;;6.80;87.50;;;;;;5041065;28;20103;-75
2023/01/31 09:08:24;;;;;;;25.08;8.02;;;6.90;87.30;;;;;;5043212;28;20017;-76
2023/01/31 09:10:54;;;;;;;24.30;7.15;;;6.90;87.10;;;;;;5043175;28;20377;-77
2023/01/31 09:13:21;;;;;;;24.85;7.53;;;6.90;86.90;;;;;;5040428;28;20017;-77
2023/01/31 09:15:55;;;;;;;20.30;7.00;;;7.00;86.90;;;;;;5044733;28;20111;-78
2023/01/31 09:18:21;;;;;;;;;;;7.10;86.70;;;;;;5044012;28;20048;-78
2023/01/31 09:20:46;;;;;;;19.13;6.68;;;7.10;86.50;;;;;;5041624;28;19944;-78
2023/01/31 09:23:12;;;;;;;23.65;6.97;;;7.10;86.50;;;;;;5044452;28;20373;-76
2023/01/31 09:25:38;;;;;;;18.85;7.50;;;7.10;86.30;;;;;;5029789;28;20059;-78
2023/01/31 09:28:03;;;;;;;18.38;6.75;;;7.20;86.30;;;;;;5035218;28;20162;-76
2023/01/31 09:30:29;;;;;;;19.38;6.47;;;7.20;86.20;;;;;;5038205;28;20056;-77
2023/01/31 09:32:55;;;;;;;25.17;7.28;;;7.20;85.90;;;;;;5044214;28;20430;-76
2023/01/31 09:35:21;;;;;;;21.23;6.97;;;7.20;86.00;;;;;;5040015;28;20021;-77
2023/01/31 09:37:46;;;;;;;19.75;6.82;;;7.20;86.20;;;;;;5041149;28;20036;-78
2023/01/31 09:40:22;;;;;;;23.70;7.60;;;7.20;85.90;;;;;;5038934;28;20029;-76
2023/01/31 09:42:49;;;;;;;21.30;7.25;;;7.20;86.00;;;;;;5043343;28;20460;-76
2023/01/31 09:45:31;;;;;;;18.48;6.60;;;7.30;85.90;;;;;;5045039;28;20025;-76
2023/01/31 09:47:59;;;;;;;32.83;8.25;;;7.30;85.80;;;;;;5039952;28;20052;-76
2023/01/31 09:50:36;;;;;;;20.85;7.40;;;7.30;85.70;;;;;;5040854;28;20079;-76
2023/01/31 09:53:03;;;;;;;23.63;7.00;;;7.30;85.80;;;;;;5037825;28;20029;-76
2023/01/31 09:55:47;;;;;;;25.45;7.32;;;7.30;85.90;;;;;;5041108;28;20028;-77
2023/01/31 09:58:34;;;;;;;23.77;7.93;;;7.30;85.90;;;;;;5037563;28;20026;-80
2023/01/31 10:01:37;;;;;;;22.05;8.75;;;7.30;85.90;;;;;;5056387;28;20295;-76
2023/01/31 10:04:09;;;;;;;23.88;7.15;;;7.40;85.90;;;;;;5029052;28;20025;-78
2023/01/31 10:06:40;;;;;;;27.10;7.15;;;7.60;85.90;;;;;;5035806;28;20045;-75
2023/01/31 10:09:09;;;;;;;18.85;6.55;;;7.70;85.60;;;;;;5034433;28;20027;-77
2023/01/31 10:11:42;;;;;;;24.13;7.28;;;7.80;85.40;;;;;;5031831;28;20041;-75
2023/01/31 10:14:29;;;;;;;23.08;6.97;;;7.80;85.00;;;;;;5036316;28;20074;-75
2023/01/31 10:17:16;;;;;;;23.70;6.07;;;7.80;84.90;;;;;;5039911;28;20470;-76
2023/01/31 10:19:53;;;;;;;19.58;6.45;;;7.80;84.60;;;;;;5036872;28;20034;-76
2023/01/31 10:22:27;;;;;;;22.23;6.45;;;7.80;84.80;;;;;;5036269;28;20469;-77
2023/01/31 10:25:15;;;;;;;24.80;6.72;;;7.80;84.60;;;;;;5035459;28;20052;-77
2023/01/31 10:28:12;;;;;;;20.60;5.63;;;8.00;84.70;;;;;;5036050;28;20033;-78
2023/01/31 10:30:55;;;;;;;19.75;5.40;;;8.10;84.40;;;;;;5031600;28;20070;-77
2023/01/31 10:33:25;;;;;;;20.60;6.43;;;8.30;84.10;;;;;;5038155;28;20028;-78
2023/01/31 10:35:53;;;;;;;20.27;6.28;;;8.50;83.90;;;;;;5041172;28;20028;-77
2023/01/31 10:38:29;;;;;;;24.73;6.10;;;8.60;83.30;;;;;;5038650;28;20017;-77
2023/01/31 10:41:30;;;;;;;20.10;6.00;;;8.70;83.10;;;;;;5033083;28;20029;-76
2023/01/31 10:44:05;;;;;;;22.55;6.15;;;9.10;82.50;;;;;;5042879;28;20098;-76
2023/01/31 10:46:31;;;;;;;19.45;5.47;;;9.30;81.60;;;;;;5043948;28;20063;-74
2023/01/31 10:48:57;;;;;;;19.55;5.50;;;9.60;81.00;;;;;;5039778;28;20045;-76
2023/01/31 10:52:03;;;;;;;23.50;6.38;;;9.60;79.80;;;;;;5041837;28;20040;-76
2023/01/31 10:54:34;;;;;;;;;;;9.40;80.70;;;;;;5042467;28;20020;-75
2023/01/31 10:57:00;;;;;;;21.95;5.22;;;9.40;80.70;;;;;;5042234;28;19917;-78
2023/01/31 10:59:36;;;;;;;21.90;5.65;;;9.50;80.90;;;;;;5044809;28;20037;-77
2023/01/31 11:02:02;;;;;;;17.40;4.35;;;9.50;80.70;;;;;;5040298;28;20068;-77
2023/01/31 11:04:37;;;;;;;21.33;6.80;;;9.40;81.20;;;;;;5046369;28;20480;-78
2023/01/31 11:07:03;;;;;;;19.73;4.78;;;9.40;81.30;;;;;;5043413;28;20029;-79
2023/01/31 11:09:35;;;;;;;17.98;4.65;;;9.30;81.80;;;;;;5047106;28;20013;-77
2023/01/31 11:12:04;;;;;;;21.23;5.00;;;9.50;81.60;;;;;;5038135;28;20037;-79
2023/01/31 11:14:30;;;;;;;15.30;4.10;;;9.60;81.80;;;;;;5043403;28;20013;-77
2023/01/31 11:17:00;;;;;;;19.88;4.57;;;9.90;81.50;;;;;;5042058;28;20037;-76
2023/01/31 11:19:42;;;;;;;17.98;4.22;;;10.00;80.60;;;;;;5044354;28;20035;-76
2023/01/31 11:22:38;;;;;;;15.45;4.28;;;10.00;81.00;;;;;;5043001;28;20033;-76
2023/01/31 11:25:05;;;;;;;18.83;4.38;;;10.20;80.30;;;;;;5030678;28;20029;-78
2023/01/31 11:27:42;;;;;;;16.80;4.40;;;10.40;80.10;;;;;;5036668;28;20453;-79
2023/01/31 11:30:39;;;;;;;16.42;4.45;;;10.50;79.70;;;;;;5033696;28;20087;-76
2023/01/31 11:33:05;;;;;;;19.83;4.35;;;10.50;79.40;;;;;;5032832;28;20098;-77
2023/01/31 11:35:33;;;;;;;19.98;5.05;;;10.20;79.80;;;;;;5032663;28;20028;-77
2023/01/31 11:38:08;;;;;;;22.08;4.70;;;10.10;80.50;;;;;;5033941;28;20050;-76
2023/01/31 11:40:35;;;;;;;;;;;10.10;80.80;;;;;;5031990;28;20036;-76
2023/01/31 11:43:03;;;;;;;24.25;5.10;;;9.90;81.20;;;;;;5031485;28;19943;-76
2023/01/31 11:45:32;;;;;;;22.17;4.43;;;9.90;81.60;;;;;;5034063;28;20029;-77
2023/01/31 11:48:17;;;;;;;17.02;4.82;;;9.80;81.90;;;;;;5034277;28;20037;-77
2023/01/31 11:50:54;;;;;;;19.80;5.05;;;9.80;82.10;;;;;;5034166;28;20102;-77
2023/01/31 11:53:28;;;;;;;24.45;5.53;;;9.80;82.00;;;;;;5032819;28;20029;-76
2023/01/31 11:56:00;;;;;;;25.23;5.28;;;9.80;82.20;;;;;;5032547;28;20171;-76
2023/01/31 11:58:37;;;;;;;22.40;4.63;;;9.80;82.50;;;;;;5033452;28;20055;-77
2023/01/31 12:01:13;;;;;;;21.63;4.68;;;9.70;82.70;;;;;;5032554;28;20112;-79
2023/01/31 12:03:46;;;;;;;19.23;4.60;;;9.60;83.10;;;;;;5031306;28;20033;-76
2023/01/31 12:06:30;;;;;;;20.48;5.05;;;9.60;83.20;;;;;;5033617;28;20108;-77
2023/01/31 12:08:57;;;;;;;17.75;4.55;;;9.60;83.30;;;;;;5030530;28;20130;-77
2023/01/31 12:11:28;;;;;;;23.55;3.97;;;9.60;83.30;;;;;;5028508;28;20048;-76
2023/01/31 12:14:06;;;;;;;15.85;4.38;;;9.70;83.50;;;;;;5035879;28;20079;-75
2023/01/31 12:16:33;;;;;;;16.48;4.50;;;9.60;83.70;;;;;;5028919;28;20048;-75
2023/01/31 12:19:11;;;;;;;17.23;4.53;;;9.60;83.80;;;;;;5029675;28;20025;-76
2023/01/31 12:22:02;;;;;;;27.88;5.10;;;9.60;84.20;;;;;;5033499;28;20086;-76
2023/01/31 12:24:59;;;;;;;17.70;4.72;;;9.60;84.20;;;;;;5035999;28;20123;-76
2023/01/31 12:27:34;;;;;;;17.63;4.63;;;9.60;84.10;;;;;;5032750;28;20387;-81
2023/01/31 12:30:18;;;;;;;;;;;9.60;84.00;;;;;;5035576;28;20060;-77
2023/01/31 12:33:05;;;;;;;20.73;4.90;;;9.60;84.20;;;;;;5038901;28;20280;-76
2023/01/31 12:35:40;;;;;;;17.50;4.85;;;9.70;83.70;;;;;;5039016;28;20009;-75
2023/01/31 12:38:26;;;;;;;;;;;9.70;83.60;;;;;;5039946;28;20144;-76
2023/01/31 12:41:27;;;;;;;23.58;5.78;;;9.60;83.60;;;;;;5041011;28;19916;-75
2023/01/31 12:43:58;;;;;;;15.07;5.38;;;9.60;83.50;;;;;;5032362;28;20028;-74
2023/01/31 12:46:48;;;;;;;16.63;5.57;;;9.60;83.80;;;;;;5032718;28;20032;-77
2023/01/31 12:49:32;;;;;;;15.82;5.97;;;9.60;84.00;;;;;;5043036;28;20047;-78
2023/01/31 12:52:35;;;;;;;23.33;6.53;;;9.60;84.50;;;;;;5043224;28;20116;-77
2023/01/31 12:55:14;;;;;;;20.15;5.97;;;9.60;85.20;;;;;;5040809;28;20482;-78
2023/01/31 12:58:04;;;;;;;19.42;5.60;;;9.60;86.00;;;;;;5041039;28;20070;-77
2023/01/31 13:00:51;;;;;;;22.13;6.00;;;9.40;86.90;;;;;;5042333;28;20465;-76
2023/01/31 13:03:26;;;;;;;17.90;6.72;;;9.40;87.50;;;;;;5043886;28;20016;-77
2023/01/31 13:06:14;;;;;;;18.77;5.25;;;9.30;88.00;;;;;;5039057;28;20037;-76
2023/01/31 13:08:48;;;;;;;18.88;5.00;;;9.30;88.30;;;;;;5038183;28;20108;-75
2023/01/31 13:11:19;;;;;;;15.73;5.45;;;9.20;88.70;;;;;;5039976;28;20040;-75